createdAt,value
2022-11-02T00:01:23.049Z,95299.28
2022-11-02T00:03:24.793Z,95295.66
2022-11-02T00:05:26.966Z,95294.00
2022-11-02T00:07:28.551Z,95299.44
2022-11-02T00:09:30.264Z,95293.00
2022-11-02T00:11:31.909Z,95291.84
2022-11-02T00:13:33.601Z,95294.34
2022-11-02T00:15:36.368Z,95299.25
2022-11-02T00:17:38.904Z,95298.44
2022-11-02T00:19:40.555Z,95295.97
2022-11-02T00:21:42.319Z,95291.53
2022-11-02T00:23:44.194Z,95293.00
2022-11-02T00:25:48.032Z,95294.47
2022-11-02T00:27:49.530Z,95287.59
2022-11-02T00:29:51.176Z,95286.59
2022-11-02T00:31:53.100Z,95288.41
2022-11-02T00:33:54.727Z,95284.44
2022-11-02T00:35:56.484Z,95284.78
2022-11-02T00:37:58.066Z,95287.44
2022-11-02T00:39:59.679Z,95285.78
2022-11-02T00:42:01.453Z,95287.59
2022-11-02T00:44:03.088Z,95286.75
2022-11-02T00:46:04.974Z,95285.94
2022-11-02T00:48:07.086Z,95284.47
2022-11-02T00:50:09.394Z,95278.69
2022-11-02T00:52:11.078Z,95283.81
2022-11-02T00:54:12.706Z,95282.00
2022-11-02T00:56:14.273Z,95280.00
2022-11-02T00:58:16.114Z,95286.09
2022-11-02T01:00:18.149Z,95288.88
2022-11-02T01:02:19.881Z,95285.94
2022-11-02T01:04:21.594Z,95289.38
2022-11-02T01:06:23.851Z,95280.81
2022-11-02T01:08:25.561Z,95289.78
2022-11-02T01:10:27.336Z,95284.28
2022-11-02T01:12:28.910Z,95295.41
2022-11-02T01:14:30.679Z,95293.63
2022-11-02T01:16:32.918Z,95290.13
2022-11-02T01:18:35.278Z,95293.06
2022-11-02T01:20:36.944Z,95299.53
2022-11-02T01:22:38.859Z,95301.63
2022-11-02T01:24:40.671Z,95295.47
2022-11-02T01:26:42.396Z,95297.38
2022-11-02T01:28:44.047Z,95286.97
2022-11-02T01:30:48.628Z,95284.47
2022-11-02T01:32:50.208Z,95277.91
2022-11-02T01:34:51.826Z,95281.59
2022-11-02T01:36:53.447Z,95274.41
2022-11-02T01:38:55.956Z,95272.13
2022-11-02T01:40:57.770Z,95270.00
2022-11-02T01:42:59.406Z,95268.69
2022-11-02T01:45:01.282Z,95265.75
2022-11-02T01:47:20.008Z,95260.00
2022-11-02T01:49:22.408Z,95257.19
2022-11-02T01:51:30.237Z,95257.84
2022-11-02T01:53:34.115Z,95263.97
2022-11-02T01:55:35.610Z,95264.91
2022-11-02T01:57:38.309Z,95259.81
2022-11-02T01:59:57.540Z,95253.72
2022-11-02T02:01:59.565Z,95257.19
2022-11-02T02:04:01.473Z,95251.91
2022-11-02T02:06:07.100Z,95254.69
2022-11-02T02:08:10.026Z,95258.47
2022-11-02T02:10:12.001Z,95255.84
2022-11-02T02:12:14.141Z,95257.47
2022-11-02T02:14:17.796Z,95253.88
2022-11-02T02:16:37.280Z,95252.88
2022-11-02T02:19:01.163Z,95253.72
2022-11-02T02:21:21.288Z,95246.81
2022-11-02T02:23:45.241Z,95250.59
2022-11-02T02:26:20.477Z,95253.69
2022-11-02T02:28:28.083Z,95249.59
2022-11-02T02:30:32.640Z,95244.81
2022-11-02T02:32:37.786Z,95247.13
2022-11-02T02:34:49.946Z,95245.81
2022-11-02T02:37:19.804Z,95240.03
2022-11-02T02:40:06.902Z,95245.63
2022-11-02T02:42:21.943Z,95250.84
2022-11-02T02:44:24.122Z,95250.34
2022-11-02T02:46:25.770Z,95259.72
2022-11-02T02:48:27.459Z,95256.25
2022-11-02T02:50:53.834Z,95257.81
2022-11-02T02:52:56.477Z,95247.53
2022-11-02T02:54:59.497Z,95251.16
2022-11-02T02:57:09.565Z,95251.84
2022-11-02T02:59:43.978Z,95252.03
2022-11-02T03:01:46.265Z,95246.16
2022-11-02T03:03:48.352Z,95248.78
2022-11-02T03:06:04.857Z,95254.22
2022-11-02T03:08:12.655Z,95251.59
2022-11-02T03:10:35.878Z,95247.25
2022-11-02T03:12:58.824Z,95259.19
2022-11-02T03:15:00.401Z,95266.19
2022-11-02T03:17:11.247Z,95272.56
2022-11-02T03:19:21.420Z,95268.84
2022-11-02T03:21:34.480Z,95272.56
2022-11-02T03:23:40.058Z,95271.72
2022-11-02T03:26:12.609Z,95267.97
2022-11-02T03:28:29.442Z,95267.72
2022-11-02T03:30:34.809Z,95259.06
2022-11-02T03:32:42.473Z,95268.13
2022-11-02T03:34:48.802Z,95261.59
2022-11-02T03:37:15.539Z,95265.56
2022-11-02T03:39:20.474Z,95256.41
2022-11-02T03:41:23.279Z,95260.38
2022-11-02T03:43:25.386Z,95252.50
2022-11-02T03:45:30.628Z,95253.31
2022-11-02T03:47:34.364Z,95256.06
2022-11-02T03:49:36.223Z,95253.34
2022-11-02T03:51:38.942Z,95262.78
2022-11-02T03:54:17.961Z,95250.94
2022-11-02T03:56:25.880Z,95259.44
2022-11-02T03:58:27.656Z,95249.09
2022-11-02T04:00:35.214Z,95256.56
2022-11-02T04:02:38.013Z,95253.56
2022-11-02T04:04:52.900Z,95252.16
2022-11-02T04:06:55.117Z,95251.41
2022-11-02T04:08:56.715Z,95249.44
2022-11-02T04:11:17.176Z,95255.06
2022-11-02T04:13:37.645Z,95248.50
2022-11-02T04:15:39.279Z,95258.88
2022-11-02T04:17:59.369Z,95256.38
2022-11-02T04:20:01.222Z,95262.31
2022-11-02T04:22:21.444Z,95257.03
2022-11-02T04:24:41.223Z,95257.84
2022-11-02T04:26:42.955Z,95258.47
2022-11-02T04:28:44.595Z,95263.56
2022-11-02T04:30:46.285Z,95262.81
2022-11-02T04:33:09.023Z,95256.94
2022-11-02T04:35:10.695Z,95263.25
2022-11-02T04:39:37.418Z,95262.34
2022-11-02T04:41:42.167Z,95264.38
2022-11-02T04:43:44.468Z,95256.84
2022-11-02T04:45:46.145Z,95254.91
2022-11-02T04:47:47.804Z,95256.56
2022-11-02T04:49:49.390Z,95263.63
2022-11-02T04:51:50.943Z,95250.31
2022-11-02T04:53:54.297Z,95254.22
2022-11-02T04:55:55.904Z,95257.31
2022-11-02T04:57:57.511Z,95255.16
2022-11-02T04:59:59.179Z,95256.28
2022-11-02T05:02:00.830Z,95253.03
2022-11-02T05:04:02.563Z,95259.28
2022-11-02T05:06:04.369Z,95258.25
2022-11-02T05:08:06.327Z,95271.13
2022-11-02T05:10:09.251Z,95266.34
2022-11-02T05:12:10.892Z,95267.38
2022-11-02T05:14:12.506Z,95267.56
2022-11-02T05:16:16.120Z,95268.47
2022-11-02T05:18:19.251Z,95270.97
2022-11-02T05:20:21.020Z,95273.69
2022-11-02T05:22:22.682Z,95275.84
2022-11-02T05:24:24.276Z,95274.25
2022-11-02T05:26:25.890Z,95276.16
2022-11-02T05:28:28.753Z,95285.06
2022-11-02T05:30:30.340Z,95288.69
2022-11-02T05:32:32.235Z,95292.72
2022-11-02T05:34:34.017Z,95291.53
2022-11-02T05:36:35.585Z,95293.03
2022-11-02T05:38:37.212Z,95295.75
2022-11-02T05:40:40.921Z,95289.56
2022-11-02T05:42:42.479Z,95289.75
2022-11-02T05:44:44.123Z,95289.16
2022-11-02T05:46:45.940Z,95299.03
2022-11-02T05:48:47.526Z,95297.59
2022-11-02T05:50:49.423Z,95301.09
2022-11-02T05:52:51.084Z,95311.31
2022-11-02T05:54:52.647Z,95311.31
2022-11-02T05:56:54.230Z,95305.66
2022-11-02T05:58:56.018Z,95313.13
2022-11-02T06:01:02.013Z,95312.16
2022-11-02T06:03:04.088Z,95315.00
2022-11-02T06:05:06.484Z,95308.66
2022-11-02T06:07:08.121Z,95321.47
2022-11-02T06:09:09.783Z,95313.81
2022-11-02T06:11:12.804Z,95317.44
2022-11-02T06:13:14.499Z,95320.25
2022-11-02T06:15:16.519Z,95317.81
2022-11-02T06:17:18.141Z,95320.47
2022-11-02T06:19:19.717Z,95318.19
2022-11-02T06:21:21.344Z,95318.22
2022-11-02T06:23:22.963Z,95319.88
2022-11-02T06:25:24.698Z,95325.47
2022-11-02T06:27:26.281Z,95320.56
2022-11-02T06:29:27.908Z,95324.22
2022-11-02T06:31:29.475Z,95326.88
2022-11-02T06:33:31.235Z,95323.59
2022-11-02T06:35:32.895Z,95319.97
2022-11-02T06:37:34.960Z,95326.38
2022-11-02T06:41:43.063Z,95328.53
2022-11-02T06:43:44.670Z,95327.72
2022-11-02T06:45:46.995Z,95327.56
2022-11-02T06:47:49.077Z,95326.25
2022-11-02T06:49:51.991Z,95329.72
2022-11-02T06:51:53.890Z,95334.00
2022-11-02T06:53:55.495Z,95323.13
2022-11-02T06:55:58.405Z,95322.16
2022-11-02T06:58:00.104Z,95323.63
2022-11-02T07:00:05.016Z,95322.94
2022-11-02T07:02:06.777Z,95321.97
2022-11-02T07:04:08.560Z,95320.44
2022-11-02T07:06:14.160Z,95310.41
2022-11-02T07:08:16.191Z,95308.75
2022-11-02T07:10:17.784Z,95315.03
2022-11-02T07:12:22.988Z,95322.28
2022-11-02T07:14:24.918Z,95321.75
2022-11-02T07:16:26.600Z,95317.66
2022-11-02T07:18:28.245Z,95322.78
2022-11-02T07:20:30.480Z,95320.44
2022-11-02T07:22:32.162Z,95313.31
2022-11-02T07:24:33.751Z,95322.47
2022-11-02T07:26:35.911Z,95322.31
2022-11-02T07:28:38.435Z,95319.50
2022-11-02T07:30:40.200Z,95318.47
2022-11-02T07:32:42.659Z,95309.34
2022-11-02T07:34:44.256Z,95308.38
2022-11-02T07:36:46.251Z,95317.72
2022-11-02T07:38:47.828Z,95308.25
2022-11-02T07:40:51.127Z,95304.63
2022-11-02T07:42:54.099Z,95305.03
2022-11-02T07:44:55.718Z,95308.78
2022-11-02T07:46:57.521Z,95303.81
2022-11-02T07:48:59.255Z,95306.91
2022-11-02T07:51:01.257Z,95302.94
2022-11-02T07:53:03.450Z,95302.19
2022-11-02T07:55:05.536Z,95304.97
2022-11-02T07:57:07.159Z,95299.69
2022-11-02T07:59:10.711Z,95303.16
2022-11-02T08:01:12.478Z,95303.22
2022-11-02T08:03:14.909Z,95294.63
2022-11-02T08:05:16.726Z,95288.13
2022-11-02T08:07:18.292Z,95290.72
2022-11-02T08:09:19.977Z,95295.22
2022-11-02T08:11:21.755Z,95288.00
2022-11-02T08:13:25.990Z,95283.81
2022-11-02T08:15:27.599Z,95282.09
2022-11-02T08:17:29.267Z,95275.03
2022-11-02T08:19:30.902Z,95275.47
2022-11-02T08:21:32.520Z,95275.38
2022-11-02T08:23:34.093Z,95275.84
2022-11-02T08:25:37.661Z,95269.91
2022-11-02T08:27:39.349Z,95266.31
2022-11-02T08:29:41.172Z,95270.00
2022-11-02T08:31:42.740Z,95264.69
2022-11-02T08:33:44.965Z,95263.09
2022-11-02T08:35:47.722Z,95255.28
2022-11-02T08:37:55.997Z,95261.19
2022-11-02T08:39:57.646Z,95260.84
2022-11-02T08:41:59.257Z,95261.97
2022-11-02T08:44:01.128Z,95260.16
2022-11-02T08:46:18.746Z,95259.38
2022-11-02T08:48:20.444Z,95257.47
2022-11-02T08:50:23.253Z,95252.22
2022-11-02T08:52:24.878Z,95256.59
2022-11-02T08:54:26.502Z,95254.72
2022-11-02T08:56:28.800Z,95259.91
2022-11-02T08:58:30.367Z,95255.97
2022-11-02T09:00:33.508Z,95250.72
2022-11-02T09:02:35.329Z,95244.88
2022-11-02T09:04:36.985Z,95250.03
2022-11-02T09:06:38.552Z,95250.69
2022-11-02T09:08:40.180Z,95246.50
2022-11-02T09:10:41.751Z,95243.06
2022-11-02T09:12:43.369Z,95247.41
2022-11-02T09:14:45.006Z,95247.59
2022-11-02T09:16:46.580Z,95239.69
2022-11-02T09:18:48.171Z,95235.41
2022-11-02T09:20:51.556Z,95228.09
2022-11-02T09:22:53.286Z,95232.44
2022-11-02T09:24:54.847Z,95229.16
2022-11-02T09:26:56.478Z,95223.25
2022-11-02T09:28:58.031Z,95215.28
2022-11-02T09:30:59.633Z,95219.44
2022-11-02T09:33:03.982Z,95214.53
2022-11-02T09:35:08.650Z,95216.75
2022-11-02T09:37:10.230Z,95208.38
2022-11-02T09:39:11.892Z,95208.19
2022-11-02T09:41:35.049Z,95208.78
2022-11-02T09:43:59.776Z,95207.16
2022-11-02T09:46:07.152Z,95198.97
2022-11-02T09:48:19.886Z,95193.44
2022-11-02T09:50:34.801Z,95199.38
2022-11-02T09:52:38.106Z,95190.38
2022-11-02T09:54:46.035Z,95191.19
2022-11-02T09:56:48.219Z,95188.31
2022-11-02T09:58:56.125Z,95187.50
2022-11-02T10:01:01.907Z,95180.06
2022-11-02T10:03:42.837Z,95179.63
2022-11-02T10:05:53.123Z,95172.66
2022-11-02T10:08:01.684Z,95164.03
2022-11-02T10:10:05.852Z,95166.84
2022-11-02T10:12:15.210Z,95167.97
2022-11-02T10:14:28.751Z,95161.72
2022-11-02T10:16:35.311Z,95158.22
2022-11-02T10:18:37.942Z,95157.13
2022-11-02T10:20:44.659Z,95155.63
2022-11-02T10:22:47.892Z,95142.94
2022-11-02T10:24:50.413Z,95145.97
2022-11-02T10:26:56.173Z,95157.69
2022-11-02T10:29:04.923Z,95149.91
2022-11-02T10:31:27.512Z,95143.19
2022-11-02T10:33:30.479Z,95141.72
2022-11-02T10:38:31.574Z,95136.88
2022-11-02T10:40:45.305Z,95136.09
2022-11-02T10:42:59.400Z,95132.13
2022-11-02T10:45:16.640Z,95135.59
2022-11-02T10:47:20.561Z,95127.06
2022-11-02T10:50:06.948Z,95121.00
2022-11-02T10:52:16.248Z,95120.19
2022-11-02T10:54:21.727Z,95113.31
2022-11-02T10:56:32.775Z,95117.31
2022-11-02T10:58:37.084Z,95115.81
2022-11-02T11:00:39.089Z,95106.84
2022-11-02T11:02:40.767Z,95104.69
2022-11-02T11:04:43.042Z,95098.34
2022-11-02T11:06:44.603Z,95105.69
2022-11-02T11:08:53.659Z,95091.66
2022-11-02T11:10:55.325Z,95088.63
2022-11-02T11:12:57.120Z,95094.41
2022-11-02T11:19:51.783Z,95079.72
2022-11-02T11:21:53.515Z,95078.72
2022-11-02T11:24:22.242Z,95073.38
2022-11-02T11:26:28.452Z,95080.56
2022-11-02T11:28:34.963Z,95074.50
2022-11-02T11:33:01.722Z,95071.41
2022-11-02T11:35:10.290Z,95068.34
2022-11-02T11:37:15.156Z,95062.31
2022-11-02T11:39:28.346Z,95052.47
2022-11-02T11:41:31.481Z,95055.44
2022-11-02T11:43:38.281Z,95052.56
2022-11-02T11:45:39.925Z,95048.94
2022-11-02T11:47:42.748Z,95052.09
2022-11-02T11:52:17.856Z,95050.03
2022-11-02T11:54:28.973Z,95046.16
2022-11-02T11:56:30.648Z,95029.91
2022-11-02T11:58:34.075Z,95035.84
2022-11-02T12:00:35.716Z,95034.00
2022-11-02T12:02:43.783Z,95027.84
2022-11-02T12:04:46.254Z,95028.44
2022-11-02T12:07:09.537Z,95033.38
2022-11-02T12:09:42.221Z,95024.34
2022-11-02T12:12:08.211Z,95019.56
2022-11-02T12:14:31.350Z,95017.94
2022-11-02T12:16:33.226Z,95012.47
2022-11-02T12:18:49.879Z,95012.69
2022-11-02T12:20:59.985Z,95011.06
2022-11-02T12:23:29.150Z,95005.84
2022-11-02T12:25:39.619Z,95007.69
2022-11-02T12:27:57.139Z,95003.41
2022-11-02T12:30:11.815Z,95007.00
2022-11-02T12:32:42.269Z,94999.09
2022-11-02T12:34:46.506Z,94997.34
2022-11-02T12:37:32.762Z,95010.84
2022-11-02T12:39:54.346Z,95001.19
2022-11-02T12:42:02.681Z,95000.81
2022-11-02T12:44:13.314Z,94989.53
2022-11-02T12:46:42.214Z,94989.19
2022-11-02T12:48:55.409Z,94990.16
2022-11-02T12:51:13.284Z,94985.84
2022-11-02T12:53:21.062Z,94988.97
2022-11-02T12:55:26.277Z,94990.47
2022-11-02T12:57:31.871Z,94984.31
2022-11-02T12:59:34.845Z,94986.88
2022-11-02T13:01:40.824Z,94978.63
2022-11-02T13:04:18.096Z,94983.53
2022-11-02T13:06:26.802Z,94991.06
2022-11-02T13:08:47.759Z,94987.00
2022-11-02T13:10:55.101Z,94973.88
2022-11-02T13:13:00.361Z,94983.41
2022-11-02T13:15:05.695Z,94982.22
2022-11-02T13:17:33.812Z,94973.28
2022-11-02T13:19:39.452Z,94972.84
2022-11-02T13:21:45.101Z,94977.00
2022-11-02T13:23:56.969Z,94973.97
2022-11-02T13:26:04.043Z,94974.78
2022-11-02T13:28:12.835Z,94966.53
2022-11-02T13:30:16.888Z,94966.53
2022-11-02T13:32:32.453Z,94970.16
2022-11-02T13:34:38.074Z,94973.88
2022-11-02T13:36:40.287Z,94972.72
2022-11-02T13:38:49.496Z,94978.38
2022-11-02T13:41:29.686Z,94977.09
2022-11-02T13:43:53.892Z,94968.66
2022-11-02T13:46:13.824Z,94978.84
2022-11-02T13:48:28.793Z,94973.63
2022-11-02T13:50:32.133Z,94972.56
2022-11-02T13:52:37.994Z,94984.66
2022-11-02T13:54:48.976Z,94969.19
2022-11-02T13:56:56.193Z,94969.91
2022-11-02T13:59:03.794Z,94970.94
2022-11-02T14:01:08.024Z,94960.25
2022-11-02T14:03:14.064Z,94972.34
2022-11-02T14:05:31.577Z,94969.78
2022-11-02T14:07:35.935Z,94962.81
2022-11-02T14:09:42.804Z,94967.34
2022-11-02T14:11:44.316Z,94972.00
2022-11-02T14:13:54.906Z,94972.25
2022-11-02T14:15:56.906Z,94969.78
2022-11-02T14:18:11.391Z,94972.56
2022-11-02T14:20:35.857Z,94976.88
2022-11-02T14:22:37.411Z,94973.63
2022-11-02T14:24:39.604Z,94965.13
2022-11-02T14:26:54.710Z,94970.94
2022-11-02T14:28:56.422Z,94972.56
2022-11-02T14:31:21.595Z,94979.41
2022-11-02T14:33:58.359Z,94981.63
2022-11-02T14:36:35.392Z,94980.00
2022-11-02T14:38:57.100Z,94984.53
2022-11-02T14:41:26.221Z,94979.88
2022-11-02T14:44:01.844Z,94988.94
2022-11-02T14:46:34.431Z,94985.53
2022-11-02T14:48:52.895Z,94990.16
2022-11-02T14:51:18.423Z,94991.31
2022-11-02T14:53:26.066Z,94991.41
2022-11-02T14:55:30.553Z,94987.28
2022-11-02T14:57:36.015Z,94988.56
2022-11-02T14:59:40.568Z,94990.72
2022-11-02T15:01:58.303Z,94992.75
2022-11-02T15:04:07.049Z,94993.06
2022-11-02T15:06:11.493Z,95001.19
2022-11-02T15:08:17.429Z,94999.66
2022-11-02T15:10:19.002Z,95009.81
2022-11-02T15:12:31.940Z,95014.69
2022-11-02T15:14:54.748Z,95014.19
2022-11-02T15:16:56.582Z,95007.47
2022-11-02T15:19:52.000Z,95005.69
2022-11-02T15:21:53.740Z,95012.34
2022-11-02T15:24:17.979Z,95008.94
2022-11-02T15:26:23.621Z,95012.22
2022-11-02T15:28:27.451Z,95012.28
2022-11-02T15:30:29.702Z,95019.97
2022-11-02T15:32:34.792Z,95018.53
2022-11-02T15:34:46.480Z,95011.41
2022-11-02T15:36:48.205Z,95015.34
2022-11-02T15:38:51.407Z,95011.84
2022-11-02T15:41:08.100Z,95018.25
2022-11-02T15:43:29.921Z,95018.06
2022-11-02T15:45:56.927Z,95021.78
2022-11-02T15:48:09.797Z,95028.56
2022-11-02T15:50:22.879Z,95030.03
2022-11-02T15:52:40.141Z,95022.28
2022-11-02T15:55:28.353Z,95028.06
2022-11-02T15:57:52.820Z,95027.25
2022-11-02T16:00:12.282Z,95032.63
2022-11-02T16:02:19.978Z,95027.53
2022-11-02T16:04:22.378Z,95031.00
2022-11-02T16:06:26.387Z,95038.41
2022-11-02T16:08:38.097Z,95039.03
2022-11-02T16:10:40.904Z,95034.75
2022-11-02T16:12:42.461Z,95035.41
2022-11-02T16:14:56.091Z,95040.91
2022-11-02T16:16:57.707Z,95041.97
2022-11-02T16:18:59.340Z,95045.63
2022-11-02T16:21:02.316Z,95047.47
2022-11-02T16:23:05.240Z,95047.91
2022-11-02T16:25:16.856Z,95049.97
2022-11-02T16:27:18.493Z,95053.03
2022-11-02T16:29:36.133Z,95052.44
2022-11-02T16:31:38.067Z,95048.78
2022-11-02T16:33:40.791Z,95054.50
2022-11-02T16:35:42.422Z,95056.19
2022-11-02T16:37:44.672Z,95052.94
2022-11-02T16:39:47.708Z,95063.78
2022-11-02T16:41:51.557Z,95063.19
2022-11-02T16:43:53.503Z,95063.81
2022-11-02T16:46:00.785Z,95059.94
2022-11-02T16:48:04.691Z,95066.06
2022-11-02T16:50:20.606Z,95064.44
2022-11-02T16:52:24.196Z,95069.75
2022-11-02T16:54:28.861Z,95072.81
2022-11-02T16:56:32.315Z,95069.97
2022-11-02T16:58:34.203Z,95072.63
2022-11-02T17:00:36.390Z,95076.47
2022-11-02T17:02:40.183Z,95074.63
2022-11-02T17:04:43.088Z,95072.97
2022-11-02T17:06:45.330Z,95070.75
2022-11-02T17:08:54.877Z,95072.81
2022-11-02T17:10:58.053Z,95078.72
2022-11-02T17:13:00.001Z,95079.97
2022-11-02T17:15:14.883Z,95082.81
2022-11-02T17:17:22.334Z,95072.56
2022-11-02T17:19:39.589Z,95080.56
2022-11-02T17:21:44.356Z,95088.31
2022-11-02T17:23:47.435Z,95082.41
2022-11-02T17:25:49.243Z,95084.44
2022-11-02T17:27:53.057Z,95084.06
2022-11-02T17:29:54.931Z,95076.09
2022-11-02T17:32:00.511Z,95089.38
2022-11-02T17:34:10.155Z,95082.81
2022-11-02T17:36:11.867Z,95083.22
2022-11-02T17:38:13.579Z,95083.22
2022-11-02T17:40:15.214Z,95088.53
2022-11-02T17:42:35.684Z,95094.88
2022-11-02T17:44:37.300Z,95087.91
2022-11-02T17:46:41.673Z,95085.69
2022-11-02T17:48:46.388Z,95097.53
2022-11-02T17:50:48.152Z,95088.13
2022-11-02T17:52:50.801Z,95094.03
2022-11-02T17:54:52.391Z,95101.63
2022-11-02T17:56:53.976Z,95102.00
2022-11-02T17:58:55.589Z,95106.50
2022-11-02T18:00:57.754Z,95096.50
2022-11-02T18:02:59.622Z,95099.16
2022-11-02T18:05:01.166Z,95102.84
2022-11-02T18:07:02.774Z,95095.88
2022-11-02T18:09:19.446Z,95103.84
2022-11-02T18:11:26.063Z,95101.19
2022-11-02T18:13:28.171Z,95101.63
2022-11-02T18:15:31.648Z,95101.63
2022-11-02T18:17:35.009Z,95101.63
2022-11-02T18:19:36.793Z,95103.84
2022-11-02T18:21:38.640Z,95100.56
2022-11-02T18:23:41.106Z,95099.13
2022-11-02T18:25:42.862Z,95097.91
2022-11-02T18:27:45.812Z,95098.72
2022-11-02T18:29:47.395Z,95099.13
2022-11-02T18:31:50.084Z,95101.16
2022-11-02T18:33:52.983Z,95092.16
2022-11-02T18:36:02.232Z,95101.34
2022-11-02T18:38:04.340Z,95099.31
2022-11-02T18:40:07.565Z,95101.97
2022-11-02T18:42:09.134Z,95106.22
2022-11-02T18:44:15.294Z,95105.22
2022-11-02T18:46:17.312Z,95100.91
2022-11-02T18:48:18.884Z,95111.72
2022-11-02T18:50:20.500Z,95110.91
2022-11-02T18:52:22.627Z,95121.13
2022-11-02T18:54:24.291Z,95114.59
2022-11-02T18:56:26.525Z,95118.81
2022-11-02T18:58:28.093Z,95116.97
2022-11-02T19:00:29.679Z,95121.28
2022-11-02T19:02:31.307Z,95121.03
2022-11-02T19:04:33.634Z,95124.94
2022-11-02T19:06:53.462Z,95119.00
2022-11-02T19:09:13.333Z,95115.34
2022-11-02T19:11:14.935Z,95120.66
2022-11-02T19:13:16.721Z,95118.81
2022-11-02T19:15:18.318Z,95121.88
2022-11-02T19:17:21.771Z,95121.00
2022-11-02T19:19:23.580Z,95137.56
2022-11-02T19:21:25.499Z,95127.34
2022-11-02T19:23:27.070Z,95123.03
2022-11-02T19:25:28.687Z,95123.44
2022-11-02T19:27:30.326Z,95127.31
2022-11-02T19:29:31.994Z,95125.03
2022-11-02T19:31:34.484Z,95129.13
2022-11-02T19:33:36.153Z,95136.91
2022-11-02T19:35:37.704Z,95133.03
2022-11-02T19:37:39.241Z,95127.09
2022-11-02T19:39:41.205Z,95130.78
2022-11-02T19:41:42.815Z,95132.03
2022-11-02T19:43:45.460Z,95130.78
2022-11-02T19:45:47.070Z,95126.69
2022-11-02T19:47:50.166Z,95132.00
2022-11-02T19:49:51.739Z,95131.19
2022-11-02T19:51:53.411Z,95128.72
2022-11-02T19:53:58.134Z,95130.34
2022-11-02T19:55:59.771Z,95128.13
2022-11-02T19:58:01.444Z,95127.50
2022-11-02T20:00:03.617Z,95134.22
2022-11-02T20:02:05.201Z,95128.69
2022-11-02T20:04:07.231Z,95138.47
2022-11-02T20:06:15.327Z,95128.69
2022-11-02T20:08:17.123Z,95134.41
2022-11-02T20:10:18.829Z,95141.75
2022-11-02T20:12:20.458Z,95127.84
2022-11-02T20:14:22.058Z,95135.25
2022-11-02T20:16:23.769Z,95138.13
2022-11-02T20:18:25.802Z,95138.13
2022-11-02T20:20:28.055Z,95138.13
2022-11-02T20:22:29.681Z,95132.81
2022-11-02T20:24:31.294Z,95151.78
2022-11-02T20:26:34.968Z,95149.13
2022-11-02T20:28:37.401Z,95143.63
2022-11-02T20:30:42.697Z,95149.94
2022-11-02T20:32:44.284Z,95148.69
2022-11-02T20:34:46.440Z,95145.25
2022-11-02T20:36:48.120Z,95143.78
2022-11-02T20:38:51.650Z,95144.41
2022-11-02T20:40:53.264Z,95147.69
2022-11-02T20:42:55.108Z,95143.41
2022-11-02T20:44:57.240Z,95144.00
2022-11-02T20:46:58.793Z,95142.75
2022-11-02T20:49:08.592Z,95141.72
2022-11-02T20:51:23.068Z,95143.97
2022-11-02T20:53:25.458Z,95142.75
2022-11-02T20:55:27.341Z,95139.28
2022-11-02T20:57:29.316Z,95138.22
2022-11-02T20:59:30.890Z,95142.47
2022-11-02T21:01:32.570Z,95140.59
2022-11-02T21:03:34.773Z,95132.44
2022-11-02T21:05:36.392Z,95135.09
2022-11-02T21:07:38.035Z,95137.56
2022-11-02T21:09:39.702Z,95134.72
2022-11-02T21:11:59.698Z,95133.06
2022-11-02T21:14:01.423Z,95135.50
2022-11-02T21:16:03.695Z,95142.19
2022-11-02T21:18:05.396Z,95135.06
2022-11-02T21:22:31.047Z,95138.19
2022-11-02T21:24:32.773Z,95134.50
2022-11-02T21:26:34.312Z,95134.50
2022-11-02T21:30:44.050Z,95136.97
2022-11-02T21:32:45.974Z,95142.28
2022-11-02T21:34:47.574Z,95135.97
2022-11-02T21:36:49.240Z,95131.47
2022-11-02T21:38:50.980Z,95130.69
2022-11-02T21:40:53.005Z,95138.88
2022-11-02T21:42:54.628Z,95143.38
2022-11-02T21:44:56.292Z,95139.28
2022-11-02T21:46:57.854Z,95135.78
2022-11-02T21:48:59.445Z,95136.63
2022-11-02T21:51:01.029Z,95140.09
2022-11-02T21:53:03.188Z,95146.66
2022-11-02T21:55:05.723Z,95137.25
2022-11-02T21:57:07.341Z,95140.91
2022-11-02T21:59:09.854Z,95147.00
2022-11-02T22:01:39.345Z,95141.34
2022-11-02T22:03:41.119Z,95139.69
2022-11-02T22:05:55.472Z,95144.38
2022-11-02T22:08:16.107Z,95146.66
2022-11-02T22:10:17.719Z,95149.88
2022-11-02T22:12:37.592Z,95146.94
2022-11-02T22:14:40.291Z,95150.97
2022-11-02T22:16:43.032Z,95143.38
2022-11-02T22:18:45.553Z,95157.03
2022-11-02T22:20:54.609Z,95152.63
2022-11-02T22:22:56.195Z,95156.81
2022-11-02T22:24:57.775Z,95149.44
2022-11-02T22:26:59.540Z,95157.00
2022-11-02T22:29:01.586Z,95151.63
2022-11-02T22:31:27.781Z,95163.13
2022-11-02T22:33:29.373Z,95159.78
2022-11-02T22:35:31.238Z,95157.84
2022-11-02T22:37:51.287Z,95161.38
2022-11-02T22:39:52.824Z,95160.56
2022-11-02T22:41:54.739Z,95154.44
2022-11-02T22:43:58.779Z,95152.44
2022-11-02T22:46:05.571Z,95155.63
2022-11-02T22:48:07.322Z,95159.22
2022-11-02T22:50:09.140Z,95152.72
2022-11-02T22:52:10.777Z,95151.81
2022-11-02T22:54:15.727Z,95152.25
2022-11-02T22:56:18.905Z,95137.84
2022-11-02T22:58:20.475Z,95135.56
2022-11-02T23:00:22.415Z,95144.69
2022-11-02T23:02:24.037Z,95146.97
2022-11-02T23:04:25.675Z,95152.78
2022-11-02T23:06:28.008Z,95146.84
2022-11-02T23:08:29.743Z,95153.50
2022-11-02T23:10:53.498Z,95152.38
2022-11-02T23:12:56.243Z,95146.78
2022-11-02T23:14:57.836Z,95150.06
2022-11-02T23:16:59.463Z,95146.84
2022-11-02T23:19:29.151Z,95146.84
2022-11-02T23:21:31.099Z,95144.56
2022-11-02T23:23:51.271Z,95141.94
2022-11-02T23:25:56.655Z,95142.56
2022-11-02T23:28:17.376Z,95146.84
2022-11-02T23:30:37.750Z,95149.44
2022-11-02T23:32:39.621Z,95150.25
2022-11-02T23:35:01.178Z,95153.19
2022-11-02T23:37:05.821Z,95156.41
2022-11-02T23:39:26.398Z,95152.31
2022-11-02T23:41:29.110Z,95160.13
2022-11-02T23:43:30.692Z,95154.91
2022-11-02T23:45:32.290Z,95160.22
2022-11-02T23:47:52.473Z,95162.09
2022-11-02T23:49:54.047Z,95155.72
2022-11-02T23:52:13.969Z,95161.66
2022-11-02T23:54:33.919Z,95165.72
2022-11-02T23:56:44.465Z,95164.09
2022-11-02T23:58:46.557Z,95166.22
